createdAt,value
2023-05-19T00:00:51.078Z,13.05
2023-05-19T00:02:54.521Z,10.38
2023-05-19T00:04:58.582Z,8.77
2023-05-19T00:07:02.627Z,9.48
2023-05-19T00:09:07.566Z,9.30
2023-05-19T00:11:11.570Z,12.38
2023-05-19T00:13:14.941Z,9.90
2023-05-19T00:15:20.440Z,9.27
2023-05-19T00:17:24.049Z,10.70
2023-05-19T00:19:27.119Z,8.32
2023-05-19T00:21:31.698Z,13.38
2023-05-19T00:23:34.551Z,9.60
2023-05-19T00:25:37.772Z,9.48
2023-05-19T00:27:40.820Z,8.30
2023-05-19T00:29:44.090Z,7.72
2023-05-19T00:31:48.482Z,10.73
2023-05-19T00:33:52.502Z,9.47
2023-05-19T00:35:55.438Z,7.05
2023-05-19T00:37:58.455Z,9.73
2023-05-19T00:40:01.443Z,10.18
2023-05-19T00:42:06.181Z,8.70
2023-05-19T00:44:09.119Z,7.88
2023-05-19T00:46:12.155Z,9.38
2023-05-19T00:48:16.892Z,16.30
2023-05-19T00:50:19.992Z,10.77
2023-05-19T00:52:23.341Z,8.45
2023-05-19T00:54:28.374Z,8.82
2023-05-19T00:56:32.222Z,10.82
2023-05-19T00:58:37.338Z,7.63
2023-05-19T01:00:40.507Z,10.57
2023-05-19T01:02:44.064Z,8.95
2023-05-19T01:04:49.264Z,8.60
2023-05-19T01:06:55.247Z,13.07
2023-05-19T01:08:58.573Z,8.38
2023-05-19T01:11:01.815Z,6.45
2023-05-19T01:13:05.967Z,8.02
2023-05-19T01:15:10.434Z,8.60
2023-05-19T01:17:20.971Z,9.63
2023-05-19T01:19:41.382Z,7.55
2023-05-19T01:22:23.372Z,8.93
2023-05-19T01:25:00.257Z,6.20
2023-05-19T01:27:24.660Z,8.80
2023-05-19T01:29:42.902Z,6.10
2023-05-19T01:31:50.763Z,11.05
2023-05-19T01:33:55.094Z,9.85
2023-05-19T01:36:03.593Z,7.55
2023-05-19T01:38:09.548Z,7.47
2023-05-19T01:40:13.521Z,9.40
2023-05-19T01:42:18.326Z,7.22
2023-05-19T01:44:22.525Z,9.93
2023-05-19T01:46:25.998Z,12.10
2023-05-19T01:48:31.028Z,7.90
2023-05-19T01:50:34.939Z,9.63
2023-05-19T01:52:38.226Z,8.32
2023-05-19T01:54:41.234Z,9.85
2023-05-19T01:56:50.537Z,8.10
2023-05-19T01:58:59.528Z,7.88
2023-05-19T02:01:11.782Z,11.18
2023-05-19T02:03:27.198Z,8.38
2023-05-19T02:05:38.842Z,9.57
2023-05-19T02:07:50.948Z,8.20
2023-05-19T02:10:02.958Z,5.75
2023-05-19T02:12:14.626Z,6.28
2023-05-19T02:14:21.614Z,7.68
2023-05-19T02:16:29.224Z,10.00
2023-05-19T02:18:33.620Z,10.18
2023-05-19T02:20:38.705Z,9.80
2023-05-19T02:22:43.121Z,8.93
2023-05-19T02:24:48.063Z,9.82
2023-05-19T02:26:52.130Z,7.07
2023-05-19T02:28:55.354Z,8.35
2023-05-19T02:31:00.410Z,9.45
2023-05-19T02:33:07.041Z,4.65
2023-05-19T02:35:10.474Z,7.20
2023-05-19T02:37:15.807Z,7.85
2023-05-19T02:41:22.670Z,6.30
2023-05-19T02:43:25.783Z,5.95
2023-05-19T02:45:29.105Z,8.75
2023-05-19T02:47:35.458Z,9.60
2023-05-19T02:49:40.214Z,5.30
2023-05-19T02:51:43.503Z,5.32
2023-05-19T02:53:48.357Z,8.20
2023-05-19T02:55:51.788Z,7.75
2023-05-19T02:57:54.995Z,7.78
2023-05-19T02:59:58.062Z,9.18
2023-05-19T03:02:02.345Z,7.28
2023-05-19T03:04:05.903Z,8.48
2023-05-19T03:06:09.634Z,7.60
2023-05-19T03:08:12.813Z,8.80
2023-05-19T03:10:17.253Z,6.63
2023-05-19T03:12:20.211Z,9.00
2023-05-19T03:14:24.884Z,7.50
2023-05-19T03:16:28.470Z,6.80
2023-05-19T03:18:32.108Z,4.70
2023-05-19T03:20:35.218Z,7.32
2023-05-19T03:22:38.628Z,10.02
2023-05-19T03:24:41.606Z,8.07
2023-05-19T03:26:46.308Z,5.97
2023-05-19T03:28:49.617Z,4.93
2023-05-19T03:30:52.546Z,7.32
2023-05-19T03:33:01.961Z,6.82
2023-05-19T03:35:05.975Z,10.90
2023-05-19T03:37:11.014Z,9.18
2023-05-19T03:39:15.876Z,9.43
2023-05-19T03:41:19.765Z,8.85
2023-05-19T03:43:24.486Z,9.07
2023-05-19T03:45:34.806Z,7.45
2023-05-19T03:47:50.358Z,5.78
2023-05-19T03:50:14.156Z,8.07
2023-05-19T03:52:28.440Z,9.18
2023-05-19T03:54:55.289Z,10.88
2023-05-19T03:56:58.579Z,10.18
2023-05-19T03:59:03.058Z,8.77
2023-05-19T04:01:06.043Z,9.57
2023-05-19T04:03:09.338Z,5.38
2023-05-19T04:05:12.434Z,5.40
2023-05-19T04:07:15.604Z,7.85
2023-05-19T04:09:19.763Z,8.07
2023-05-19T04:11:22.755Z,4.90
2023-05-19T04:13:25.958Z,9.57
2023-05-19T04:15:30.705Z,6.90
2023-05-19T04:17:33.720Z,9.07
2023-05-19T04:19:36.827Z,4.88
2023-05-19T04:21:41.182Z,4.53
2023-05-19T04:23:44.322Z,6.50
2023-05-19T04:25:49.096Z,5.55
2023-05-19T04:27:53.292Z,7.95
2023-05-19T04:29:56.436Z,5.93
2023-05-19T04:32:01.385Z,6.28
2023-05-19T04:34:04.613Z,4.20
2023-05-19T04:36:10.836Z,4.95
2023-05-19T04:38:19.218Z,5.97
2023-05-19T04:40:24.439Z,6.35
2023-05-19T04:42:30.943Z,6.00
2023-05-19T04:44:40.418Z,5.80
2023-05-19T04:46:45.542Z,7.00
2023-05-19T04:50:53.513Z,5.47
2023-05-19T04:52:56.920Z,8.50
2023-05-19T04:55:01.566Z,6.90
2023-05-19T04:57:05.165Z,8.88
2023-05-19T04:59:11.449Z,8.60
2023-05-19T05:01:16.431Z,12.43
2023-05-19T05:03:19.639Z,7.75
2023-05-19T05:05:24.906Z,7.78
2023-05-19T05:07:28.937Z,7.15
2023-05-19T05:09:33.436Z,10.30
2023-05-19T05:11:39.084Z,6.22
2023-05-19T05:13:42.554Z,7.82
2023-05-19T05:15:46.502Z,5.32
2023-05-19T05:17:50.461Z,6.80
2023-05-19T05:19:54.578Z,6.55
2023-05-19T05:21:59.654Z,8.60
2023-05-19T05:24:03.160Z,11.60
2023-05-19T05:26:17.344Z,5.32
2023-05-19T05:28:21.680Z,7.07
2023-05-19T05:30:25.110Z,8.10
2023-05-19T05:32:29.543Z,6.68
2023-05-19T05:34:32.976Z,7.53
2023-05-19T05:36:36.008Z,9.95
2023-05-19T05:38:40.564Z,9.02
2023-05-19T05:40:43.661Z,10.68
2023-05-19T05:42:46.843Z,8.18
2023-05-19T05:44:49.821Z,6.65
2023-05-19T05:46:53.871Z,7.65
2023-05-19T05:48:58.329Z,6.20
2023-05-19T05:51:01.764Z,8.18
2023-05-19T05:53:09.342Z,13.13
2023-05-19T05:55:20.647Z,11.05
2023-05-19T05:57:24.859Z,6.82
2023-05-19T05:59:27.844Z,10.70
2023-05-19T06:01:32.183Z,11.00
2023-05-19T06:03:38.532Z,9.57
2023-05-19T06:05:43.581Z,8.82
2023-05-19T06:07:47.035Z,6.93
2023-05-19T06:09:57.125Z,14.40
2023-05-19T06:14:10.305Z,10.90
2023-05-19T06:16:27.031Z,7.57
2023-05-19T06:18:30.333Z,9.38
2023-05-19T06:20:33.932Z,9.25
2023-05-19T06:22:38.201Z,12.60
2023-05-19T06:24:42.341Z,12.07
2023-05-19T06:26:46.289Z,13.20
2023-05-19T06:28:50.842Z,12.55
2023-05-19T06:30:53.924Z,10.40
2023-05-19T06:33:04.387Z,9.77
2023-05-19T06:35:09.196Z,12.75
2023-05-19T06:37:12.380Z,10.90
2023-05-19T06:39:15.387Z,12.40
2023-05-19T06:41:18.522Z,13.40
2023-05-19T06:43:23.411Z,12.45
2023-05-19T06:45:36.707Z,11.82
2023-05-19T06:47:44.883Z,13.80
2023-05-19T06:49:51.994Z,14.30
2023-05-19T06:51:54.983Z,12.88
2023-05-19T06:53:58.247Z,11.50
2023-05-19T06:56:01.336Z,15.88
2023-05-19T06:58:08.849Z,13.73
2023-05-19T07:00:14.597Z,12.07
2023-05-19T07:02:24.108Z,15.57
2023-05-19T07:04:27.664Z,14.63
2023-05-19T07:06:32.307Z,12.18
2023-05-19T07:08:37.563Z,18.75
2023-05-19T07:10:42.671Z,17.83
2023-05-19T07:12:48.877Z,13.32
2023-05-19T07:14:53.704Z,14.05
2023-05-19T07:16:57.033Z,15.27
2023-05-19T07:19:01.939Z,13.88
2023-05-19T07:21:05.110Z,14.65
2023-05-19T07:23:08.095Z,13.15
2023-05-19T07:25:11.920Z,16.92
2023-05-19T07:27:15.556Z,19.15
2023-05-19T07:29:18.557Z,15.93
2023-05-19T07:31:21.552Z,17.50
2023-05-19T07:33:24.518Z,18.50
2023-05-19T07:35:29.003Z,16.48
2023-05-19T07:37:31.921Z,17.75
2023-05-19T07:39:36.293Z,17.45
2023-05-19T07:41:39.264Z,18.77
2023-05-19T07:43:42.582Z,18.52
2023-05-19T07:45:45.672Z,16.83
2023-05-19T07:47:48.900Z,17.73
2023-05-19T07:49:52.057Z,16.63
2023-05-19T07:51:56.916Z,20.92
2023-05-19T07:53:59.991Z,19.85
2023-05-19T07:56:03.500Z,20.42
2023-05-19T07:58:06.436Z,20.48
2023-05-19T08:00:12.873Z,17.65
2023-05-19T08:02:16.925Z,16.05
2023-05-19T08:04:20.224Z,18.60
2023-05-19T08:06:23.252Z,19.25
2023-05-19T08:08:27.869Z,16.85
2023-05-19T08:10:31.197Z,15.60
2023-05-19T08:12:34.498Z,15.93
2023-05-19T08:14:37.774Z,16.10
2023-05-19T08:16:42.606Z,17.40
2023-05-19T08:18:45.801Z,20.27
2023-05-19T08:20:48.963Z,19.55
2023-05-19T08:22:52.096Z,12.00
2023-05-19T08:24:57.226Z,20.55
2023-05-19T08:27:00.378Z,17.92
2023-05-19T08:29:03.489Z,21.52
2023-05-19T08:31:06.591Z,21.05
2023-05-19T08:33:09.644Z,25.52
2023-05-19T08:35:12.795Z,25.98
2023-05-19T08:37:16.110Z,18.20
2023-05-19T08:39:24.420Z,26.05
2023-05-19T08:41:29.179Z,24.27
2023-05-19T08:43:32.319Z,21.17
2023-05-19T08:45:35.568Z,27.95
2023-05-19T08:47:38.880Z,25.52
2023-05-19T08:49:45.666Z,20.92
2023-05-19T08:51:56.274Z,25.75
2023-05-19T08:54:05.079Z,27.65
2023-05-19T08:56:12.317Z,21.17
2023-05-19T08:58:20.764Z,21.10
2023-05-19T09:00:24.109Z,24.80
2023-05-19T09:02:28.425Z,23.98
2023-05-19T09:04:32.718Z,23.15
2023-05-19T09:06:35.983Z,25.70
2023-05-19T09:08:39.139Z,21.92
2023-05-19T09:10:42.274Z,19.98
2023-05-19T09:12:46.821Z,27.60
2023-05-19T09:14:51.582Z,19.33
2023-05-19T09:16:54.902Z,24.13
2023-05-19T09:18:58.689Z,21.35
2023-05-19T09:21:03.370Z,27.45
2023-05-19T09:23:06.596Z,25.88
2023-05-19T09:25:19.642Z,23.42
2023-05-19T09:27:25.994Z,22.73
2023-05-19T09:29:29.023Z,27.10
2023-05-19T09:31:34.530Z,28.38
2023-05-19T09:33:38.583Z,25.33
2023-05-19T09:35:47.255Z,21.52
2023-05-19T09:37:50.140Z,20.55
2023-05-19T09:39:53.974Z,21.00
2023-05-19T09:41:59.071Z,17.58
2023-05-19T09:44:02.016Z,19.00
2023-05-19T09:46:09.212Z,21.95
2023-05-19T09:48:16.908Z,17.77
2023-05-19T09:50:19.821Z,18.83
2023-05-19T09:52:23.424Z,21.17
2023-05-19T09:54:32.575Z,19.63
2023-05-19T09:56:36.143Z,20.02
2023-05-19T09:58:42.948Z,21.38
2023-05-19T10:00:47.179Z,19.00
2023-05-19T10:02:51.305Z,20.40
2023-05-19T10:04:56.514Z,19.42
2023-05-19T10:07:00.241Z,17.58
2023-05-19T10:09:04.943Z,21.52
2023-05-19T10:11:08.971Z,14.60
2023-05-19T10:13:13.064Z,15.32
2023-05-19T10:15:17.203Z,13.45
2023-05-19T10:17:20.543Z,17.48
2023-05-19T10:19:24.582Z,13.95
2023-05-19T10:21:29.492Z,17.05
2023-05-19T10:23:32.473Z,14.63
2023-05-19T10:25:36.963Z,12.63
2023-05-19T10:27:46.534Z,12.50
2023-05-19T10:29:51.324Z,13.30
2023-05-19T10:31:56.222Z,13.50
2023-05-19T10:34:23.994Z,13.25
2023-05-19T10:36:43.233Z,13.27
2023-05-19T10:38:53.974Z,11.88
2023-05-19T10:41:05.418Z,16.65
2023-05-19T10:43:18.221Z,14.65
2023-05-19T10:45:24.423Z,14.07
2023-05-19T10:47:28.022Z,15.23
2023-05-19T10:49:36.192Z,15.60
2023-05-19T10:51:40.631Z,15.07
2023-05-19T10:53:47.056Z,14.02
2023-05-19T10:55:56.371Z,18.20
2023-05-19T10:58:00.792Z,21.75
2023-05-19T11:00:11.915Z,14.60
2023-05-19T11:02:40.359Z,14.60
2023-05-19T11:04:51.075Z,11.43
2023-05-19T11:06:58.169Z,13.52
2023-05-19T11:09:10.660Z,13.07
2023-05-19T11:11:15.073Z,12.73
2023-05-19T11:13:22.756Z,12.35
2023-05-19T11:15:28.026Z,16.70
2023-05-19T11:17:33.087Z,13.13
2023-05-19T11:19:36.618Z,13.60
2023-05-19T11:21:44.016Z,14.57
2023-05-19T11:23:48.382Z,16.42
2023-05-19T11:25:54.187Z,16.13
2023-05-19T11:27:58.297Z,15.43
2023-05-19T11:30:02.576Z,12.32
2023-05-19T11:32:08.085Z,15.93
2023-05-19T11:34:11.350Z,12.10
2023-05-19T11:36:16.956Z,11.75
2023-05-19T11:38:20.326Z,13.48
2023-05-19T11:40:25.655Z,15.50
2023-05-19T11:42:28.719Z,15.73
2023-05-19T11:44:32.708Z,15.55
2023-05-19T11:46:35.848Z,17.35
2023-05-19T11:48:39.144Z,15.98
2023-05-19T11:50:42.718Z,17.42
2023-05-19T11:52:45.567Z,18.65
2023-05-19T11:54:49.300Z,19.33
2023-05-19T11:56:53.722Z,16.55
2023-05-19T11:58:56.658Z,20.85
2023-05-19T12:01:04.559Z,16.88
2023-05-19T12:03:08.472Z,16.15
2023-05-19T12:05:19.450Z,20.55
2023-05-19T12:07:24.542Z,21.90
2023-05-19T12:09:29.591Z,16.20
2023-05-19T12:13:36.886Z,18.27
2023-05-19T12:15:39.921Z,13.50
2023-05-19T12:17:43.006Z,17.63
2023-05-19T12:19:47.482Z,17.42
2023-05-19T12:21:51.412Z,16.08
2023-05-19T12:23:54.842Z,16.20
2023-05-19T12:25:58.444Z,15.85
2023-05-19T12:28:05.130Z,17.75
2023-05-19T12:30:12.084Z,15.68
2023-05-19T12:32:15.834Z,16.73
2023-05-19T12:34:19.237Z,15.90
2023-05-19T12:36:25.176Z,15.55
2023-05-19T12:38:28.164Z,23.33
2023-05-19T12:40:31.472Z,19.58
2023-05-19T12:42:36.096Z,18.98
2023-05-19T12:44:42.985Z,15.68
2023-05-19T12:46:47.355Z,18.80
2023-05-19T12:48:50.491Z,22.45
2023-05-19T12:50:56.062Z,17.75
2023-05-19T12:53:00.244Z,20.65
2023-05-19T12:55:08.551Z,25.98
2023-05-19T12:57:11.918Z,20.20
2023-05-19T12:59:34.716Z,18.60
2023-05-19T13:01:41.202Z,20.77
2023-05-19T13:03:46.381Z,17.83
2023-05-19T13:07:58.113Z,19.77
2023-05-19T13:10:01.214Z,21.25
2023-05-19T13:12:04.985Z,20.33
2023-05-19T13:14:08.088Z,22.40
2023-05-19T13:16:11.033Z,19.25
2023-05-19T13:18:14.733Z,21.42
2023-05-19T13:20:19.441Z,18.95
2023-05-19T13:22:22.595Z,20.23
2023-05-19T13:24:25.786Z,18.83
2023-05-19T13:26:28.926Z,19.73
2023-05-19T13:28:32.036Z,20.63
2023-05-19T13:30:36.610Z,20.08
2023-05-19T13:32:39.945Z,23.13
2023-05-19T13:34:42.958Z,20.45
2023-05-19T13:36:49.276Z,21.08
2023-05-19T13:38:52.335Z,20.60
2023-05-19T13:40:55.246Z,21.05
2023-05-19T13:42:58.374Z,19.23
2023-05-19T13:45:01.496Z,23.85
2023-05-19T13:47:05.058Z,19.92
2023-05-19T13:49:08.157Z,18.58
2023-05-19T13:51:11.304Z,23.73
2023-05-19T13:53:15.939Z,20.20
2023-05-19T13:55:19.368Z,19.55
2023-05-19T13:57:22.977Z,19.42
2023-05-19T13:59:26.698Z,18.92
2023-05-19T14:01:29.841Z,20.83
2023-05-19T14:03:32.910Z,18.00
2023-05-19T14:05:36.206Z,24.70
2023-05-19T14:07:39.270Z,22.02
2023-05-19T14:09:43.738Z,20.40
2023-05-19T14:11:47.039Z,22.25
2023-05-19T14:13:52.673Z,20.17
2023-05-19T14:15:56.257Z,19.08
2023-05-19T14:17:59.344Z,19.38
2023-05-19T14:20:02.582Z,19.55
2023-05-19T14:22:05.975Z,21.40
2023-05-19T14:24:09.055Z,17.17
2023-05-19T14:26:13.471Z,20.27
2023-05-19T14:28:16.535Z,21.20
2023-05-19T14:30:19.830Z,18.23
2023-05-19T14:32:23.006Z,16.77
2023-05-19T14:34:26.362Z,17.75
2023-05-19T14:36:29.512Z,21.70
2023-05-19T14:38:32.613Z,16.95
2023-05-19T14:40:37.642Z,18.63
2023-05-19T14:42:42.041Z,16.80
2023-05-19T14:44:45.703Z,18.92
2023-05-19T14:46:48.845Z,17.20
2023-05-19T14:48:51.901Z,21.38
2023-05-19T14:50:54.952Z,18.65
2023-05-19T14:52:58.506Z,17.52
2023-05-19T14:55:01.564Z,18.98
2023-05-19T14:57:07.535Z,15.80
2023-05-19T14:59:11.984Z,17.90
2023-05-19T15:01:15.003Z,21.05
2023-05-19T15:03:18.024Z,16.08
2023-05-19T15:05:22.064Z,22.42
2023-05-19T15:07:25.147Z,24.40
2023-05-19T15:09:28.279Z,15.05
2023-05-19T15:11:31.433Z,21.35
2023-05-19T15:13:34.873Z,23.75
2023-05-19T15:15:39.769Z,20.88
2023-05-19T15:17:43.059Z,20.20
2023-05-19T15:19:46.304Z,20.52
2023-05-19T15:21:50.950Z,16.98
2023-05-19T15:23:53.904Z,22.73
2023-05-19T15:25:57.025Z,17.27
2023-05-19T15:28:00.152Z,18.80
2023-05-19T15:30:03.184Z,17.75
2023-05-19T15:32:09.634Z,20.10
2023-05-19T15:36:16.878Z,19.20
2023-05-19T15:38:20.427Z,17.25
2023-05-19T15:40:24.437Z,18.58
2023-05-19T15:42:27.826Z,20.00
2023-05-19T15:44:31.527Z,22.25
2023-05-19T15:46:35.133Z,25.23
2023-05-19T15:48:39.628Z,19.00
2023-05-19T15:50:42.814Z,22.40
2023-05-19T15:52:46.042Z,22.65
2023-05-19T15:54:49.233Z,21.23
2023-05-19T15:56:52.117Z,20.02
2023-05-19T15:58:55.150Z,19.27
2023-05-19T16:00:58.244Z,30.08
2023-05-19T16:03:01.878Z,19.15
2023-05-19T16:05:06.816Z,20.50
2023-05-19T16:07:09.948Z,18.58
2023-05-19T16:09:12.829Z,15.45
2023-05-19T16:11:16.096Z,20.23
2023-05-19T16:13:19.041Z,16.95
2023-05-19T16:15:22.285Z,19.20
2023-05-19T16:17:25.403Z,22.83
2023-05-19T16:19:28.482Z,19.83
2023-05-19T16:21:33.029Z,17.70
2023-05-19T16:23:36.083Z,21.80
2023-05-19T16:25:39.132Z,20.67
2023-05-19T16:27:42.309Z,15.98
2023-05-19T16:29:45.206Z,20.77
2023-05-19T16:31:48.256Z,17.80
2023-05-19T16:33:51.294Z,19.65
2023-05-19T16:35:54.375Z,15.45
2023-05-19T16:37:58.957Z,15.32
2023-05-19T16:40:02.182Z,18.98
2023-05-19T16:42:05.840Z,20.10
2023-05-19T16:44:08.854Z,21.02
2023-05-19T16:46:12.523Z,17.52
2023-05-19T16:48:15.738Z,18.77
2023-05-19T16:50:18.829Z,18.25
2023-05-19T16:52:22.029Z,19.83
2023-05-19T16:54:26.522Z,22.45
2023-05-19T16:56:29.618Z,24.35
2023-05-19T16:58:32.957Z,21.45
2023-05-19T17:00:36.277Z,20.67
2023-05-19T17:02:39.384Z,26.95
2023-05-19T17:04:42.403Z,22.70
2023-05-19T17:06:46.550Z,25.45
2023-05-19T17:08:49.708Z,23.98
2023-05-19T17:10:54.414Z,21.52
2023-05-19T17:12:57.603Z,24.13
2023-05-19T17:15:00.688Z,22.85
2023-05-19T17:17:04.164Z,20.50
2023-05-19T17:19:07.251Z,19.98
2023-05-19T17:21:10.296Z,26.95
2023-05-19T17:23:13.197Z,20.85
2023-05-19T17:25:17.125Z,22.15
2023-05-19T17:27:21.649Z,19.83
2023-05-19T17:29:24.998Z,20.27
2023-05-19T17:31:28.005Z,18.77
2023-05-19T17:33:31.063Z,20.30
2023-05-19T17:35:34.271Z,19.40
2023-05-19T17:37:37.932Z,20.63
2023-05-19T17:39:41.298Z,19.25
2023-05-19T17:41:44.613Z,21.48
2023-05-19T17:43:49.155Z,22.30
2023-05-19T17:45:52.345Z,24.03
2023-05-19T17:47:55.294Z,21.42
2023-05-19T17:50:00.944Z,21.55
2023-05-19T17:52:04.723Z,22.83
2023-05-19T17:54:08.388Z,24.17
2023-05-19T17:56:12.963Z,23.45
2023-05-19T17:58:16.865Z,24.65
2023-05-19T18:00:22.725Z,20.77
2023-05-19T18:02:26.654Z,21.27
2023-05-19T18:04:30.151Z,23.35
2023-05-19T18:06:33.384Z,24.08
2023-05-19T18:08:38.031Z,20.00
2023-05-19T18:10:42.572Z,20.50
2023-05-19T18:12:45.723Z,22.20
2023-05-19T18:14:50.394Z,17.48
2023-05-19T18:16:54.949Z,20.50
2023-05-19T18:18:58.047Z,21.27
2023-05-19T18:21:01.081Z,22.85
2023-05-19T18:23:04.211Z,18.10
2023-05-19T18:25:08.044Z,17.08
2023-05-19T18:27:11.104Z,19.42
2023-05-19T18:29:14.955Z,20.10
2023-05-19T18:31:20.060Z,22.50
2023-05-19T18:33:25.889Z,17.67
2023-05-19T18:35:29.973Z,18.80
2023-05-19T18:37:32.925Z,13.65
2023-05-19T18:39:36.113Z,15.52
2023-05-19T18:41:41.703Z,17.20
2023-05-19T18:43:45.124Z,19.75
2023-05-19T18:45:48.306Z,12.98
2023-05-19T18:47:51.388Z,18.70
2023-05-19T18:49:56.207Z,19.55
2023-05-19T18:51:59.213Z,14.50
2023-05-19T18:54:02.413Z,19.88
2023-05-19T18:56:06.056Z,16.67
2023-05-19T18:58:09.099Z,17.65
2023-05-19T19:00:14.176Z,16.75
2023-05-19T19:02:17.173Z,15.80
2023-05-19T19:04:20.396Z,17.92
2023-05-19T19:06:24.865Z,21.33
2023-05-19T19:08:27.825Z,18.60
2023-05-19T19:10:34.964Z,17.80
2023-05-19T19:12:38.264Z,18.27
2023-05-19T19:14:41.303Z,18.33
2023-05-19T19:16:44.473Z,21.17
2023-05-19T19:18:47.599Z,23.45
2023-05-19T19:20:50.609Z,19.75
2023-05-19T19:22:55.333Z,24.25
2023-05-19T19:24:58.392Z,25.43
2023-05-19T19:27:01.492Z,20.45
2023-05-19T19:29:04.511Z,22.02
2023-05-19T19:31:07.499Z,22.70
2023-05-19T19:33:10.592Z,22.15
2023-05-19T19:35:13.490Z,22.23
2023-05-19T19:37:16.924Z,24.35
2023-05-19T19:39:21.466Z,22.13
2023-05-19T19:41:26.425Z,21.27
2023-05-19T19:43:29.584Z,20.92
2023-05-19T19:45:34.997Z,22.48
2023-05-19T19:47:37.959Z,25.15
2023-05-19T19:49:41.376Z,22.95
2023-05-19T19:51:44.429Z,25.10
2023-05-19T19:53:47.294Z,27.60
2023-05-19T19:55:58.713Z,28.63
2023-05-19T19:58:01.657Z,28.45
2023-05-19T20:00:08.666Z,27.02
2023-05-19T20:02:12.349Z,31.40
2023-05-19T20:04:15.771Z,28.10
2023-05-19T20:06:18.782Z,26.10
2023-05-19T20:08:21.744Z,27.08
2023-05-19T20:10:24.691Z,33.35
2023-05-19T20:12:30.469Z,26.48
2023-05-19T20:14:33.516Z,27.63
2023-05-19T20:16:36.580Z,34.13
2023-05-19T20:18:39.914Z,30.48
2023-05-19T20:20:43.220Z,31.15
2023-05-19T20:22:46.313Z,31.17
2023-05-19T20:24:49.304Z,34.03
2023-05-19T20:26:52.289Z,32.33
2023-05-19T20:28:56.621Z,31.67
2023-05-19T20:30:59.614Z,33.90
2023-05-19T20:33:02.953Z,30.70
2023-05-19T20:35:07.123Z,28.92
2023-05-19T20:37:09.984Z,32.22
2023-05-19T20:39:13.083Z,30.13
2023-05-19T20:41:15.986Z,31.92
2023-05-19T20:43:18.911Z,32.13
2023-05-19T20:45:23.417Z,33.38
2023-05-19T20:47:27.754Z,30.40
2023-05-19T20:49:32.133Z,35.88
2023-05-19T20:51:35.414Z,34.80
2023-05-19T20:53:38.402Z,38.53
2023-05-19T20:55:41.537Z,45.33
2023-05-19T20:57:45.253Z,50.10
2023-05-19T20:59:48.245Z,48.20
2023-05-19T21:01:52.588Z,41.97
2023-05-19T21:03:55.777Z,47.13
2023-05-19T21:05:59.049Z,42.92
2023-05-19T21:08:03.227Z,45.42
2023-05-19T21:10:07.704Z,46.70
2023-05-19T21:12:10.908Z,45.75
2023-05-19T21:14:13.968Z,44.13
2023-05-19T21:16:17.098Z,39.05
2023-05-19T21:18:21.654Z,39.17
2023-05-19T21:20:24.974Z,37.03
2023-05-19T21:22:27.996Z,39.38
2023-05-19T21:24:31.430Z,41.63
2023-05-19T21:26:34.557Z,38.10
2023-05-19T21:28:37.567Z,39.50
2023-05-19T21:30:40.538Z,35.83
2023-05-19T21:32:43.610Z,30.85
2023-05-19T21:34:48.275Z,35.55
2023-05-19T21:36:51.327Z,30.43
2023-05-19T21:38:54.334Z,34.10
2023-05-19T21:40:57.318Z,34.92
2023-05-19T21:43:00.186Z,33.17
2023-05-19T21:45:03.316Z,36.53
2023-05-19T21:47:07.155Z,35.78
2023-05-19T21:49:10.119Z,45.50
2023-05-19T21:51:14.558Z,44.50
2023-05-19T21:53:17.536Z,44.42
2023-05-19T21:55:22.327Z,43.72
2023-05-19T21:57:25.629Z,41.60
2023-05-19T21:59:28.897Z,41.85
2023-05-19T22:01:32.566Z,44.47
2023-05-19T22:03:35.646Z,44.45
2023-05-19T22:05:39.026Z,46.08
2023-05-19T22:07:43.597Z,47.00
2023-05-19T22:09:48.842Z,47.40
2023-05-19T22:11:52.183Z,51.42
2023-05-19T22:13:55.155Z,47.53
2023-05-19T22:15:58.165Z,43.50
2023-05-19T22:18:01.569Z,52.85
2023-05-19T22:20:05.257Z,47.40
2023-05-19T22:22:14.318Z,48.60
2023-05-19T22:24:19.304Z,50.65
2023-05-19T22:26:22.515Z,51.03
2023-05-19T22:28:25.760Z,47.60
2023-05-19T22:30:28.916Z,52.20
2023-05-19T22:32:32.582Z,51.40
2023-05-19T22:34:35.609Z,46.33
2023-05-19T22:36:38.594Z,45.75
2023-05-19T22:38:41.664Z,52.55
2023-05-19T22:40:46.257Z,50.75
2023-05-19T22:42:49.318Z,44.17
2023-05-19T22:44:52.271Z,47.97
2023-05-19T22:46:55.252Z,46.75
2023-05-19T22:48:58.212Z,42.53
2023-05-19T22:51:01.244Z,48.38
2023-05-19T22:53:04.109Z,50.20
2023-05-19T22:55:08.158Z,45.72
2023-05-19T22:57:12.592Z,47.33
2023-05-19T22:59:18.165Z,46.47
2023-05-19T23:03:24.041Z,46.00
2023-05-19T23:05:26.940Z,43.08
2023-05-19T23:07:29.972Z,43.78
2023-05-19T23:09:32.950Z,42.92
2023-05-19T23:11:36.351Z,45.97
2023-05-19T23:13:41.045Z,48.38
2023-05-19T23:15:44.114Z,42.03
2023-05-19T23:17:47.013Z,44.58
2023-05-19T23:19:50.039Z,41.03
2023-05-19T23:21:52.972Z,46.40
2023-05-19T23:23:56.240Z,42.42
2023-05-19T23:25:59.544Z,43.65
2023-05-19T23:28:02.533Z,45.20
2023-05-19T23:30:08.473Z,51.85
2023-05-19T23:32:11.509Z,49.20
2023-05-19T23:34:14.410Z,49.15
2023-05-19T23:36:18.051Z,46.80
2023-05-19T23:38:21.376Z,45.13
2023-05-19T23:40:24.253Z,51.90
2023-05-19T23:42:27.134Z,43.35
2023-05-19T23:44:30.145Z,47.95
2023-05-19T23:46:34.993Z,43.42
2023-05-19T23:48:38.076Z,49.08
2023-05-19T23:50:41.057Z,53.13
2023-05-19T23:52:44.187Z,56.28
2023-05-19T23:54:47.107Z,54.72
2023-05-19T23:56:50.192Z,48.22
2023-05-19T23:58:53.057Z,56.92
